createdAt,value
2022-08-16T00:00:30.386Z,19.60
2022-08-16T00:03:07.601Z,19.40
2022-08-16T00:05:48.574Z,19.40
2022-08-16T00:08:36.053Z,19.40
2022-08-16T00:11:22.111Z,19.40
2022-08-16T00:13:53.658Z,19.80
2022-08-16T00:17:01.134Z,19.30
2022-08-16T00:19:19.791Z,19.50
2022-08-16T00:21:53.258Z,19.20
2022-08-16T00:24:31.242Z,19.10
2022-08-16T00:27:03.490Z,19.30
2022-08-16T00:29:35.236Z,19.10
2022-08-16T00:33:01.360Z,19.10
2022-08-16T00:35:45.117Z,19.00
2022-08-16T00:38:40.670Z,19.10
2022-08-16T00:41:19.587Z,19.30
2022-08-16T00:44:00.212Z,19.30
2022-08-16T00:47:08.061Z,19.50
2022-08-16T00:49:43.482Z,18.10
2022-08-16T00:52:29.564Z,19.00
2022-08-16T00:55:01.914Z,19.10
2022-08-16T00:57:59.584Z,19.10
2022-08-16T01:00:36.295Z,19.30
2022-08-16T01:03:12.668Z,19.10
2022-08-16T01:05:44.077Z,19.10
2022-08-16T01:08:35.221Z,19.20
2022-08-16T01:11:05.533Z,19.20
2022-08-16T01:13:39.712Z,19.30
2022-08-16T01:16:22.279Z,19.10
2022-08-16T01:19:03.228Z,19.60
2022-08-16T01:21:55.253Z,19.10
2022-08-16T01:24:53.626Z,19.10
2022-08-16T01:27:47.053Z,18.60
2022-08-16T01:30:40.218Z,19.00
2022-08-16T01:33:20.049Z,19.00
2022-08-16T01:36:02.500Z,19.00
2022-08-16T01:38:53.279Z,19.00
2022-08-16T01:41:32.516Z,19.00
2022-08-16T01:44:10.207Z,19.40
2022-08-16T01:46:42.857Z,19.60
2022-08-16T01:49:22.424Z,19.10
2022-08-16T01:51:57.604Z,19.10
2022-08-16T01:55:01.113Z,19.10
2022-08-16T01:57:31.513Z,19.10
2022-08-16T02:00:00.761Z,19.10
2022-08-16T02:02:29.100Z,19.60
2022-08-16T02:05:00.199Z,19.10
2022-08-16T02:07:30.568Z,19.60
2022-08-16T02:10:02.108Z,19.40
2022-08-16T02:12:50.426Z,19.40
2022-08-16T02:15:27.731Z,19.40
2022-08-16T02:18:01.116Z,19.40
2022-08-16T02:20:36.085Z,19.20
2022-08-16T02:23:08.364Z,19.20
2022-08-16T02:25:51.946Z,19.10
2022-08-16T02:28:23.609Z,19.20
2022-08-16T02:30:53.372Z,19.20
2022-08-16T02:33:24.938Z,19.20
2022-08-16T02:36:14.367Z,19.20
2022-08-16T02:39:02.585Z,19.20
2022-08-16T02:41:31.120Z,19.20
2022-08-16T02:44:00.173Z,19.20
2022-08-16T02:46:30.164Z,19.20
2022-08-16T02:49:04.346Z,19.20
2022-08-16T02:51:36.813Z,19.20
2022-08-16T02:54:07.183Z,19.20
2022-08-16T02:56:37.508Z,19.20
2022-08-16T02:59:11.338Z,19.20
2022-08-16T03:01:45.353Z,19.20
2022-08-16T03:04:29.816Z,19.20
2022-08-16T03:07:06.324Z,19.20
2022-08-16T03:09:46.678Z,19.20
2022-08-16T03:12:20.014Z,19.20
2022-08-16T03:14:49.271Z,19.10
2022-08-16T03:17:20.174Z,19.10
2022-08-16T03:19:59.504Z,19.10
2022-08-16T03:22:33.644Z,19.10
2022-08-16T03:25:09.442Z,19.00
2022-08-16T03:27:42.849Z,19.00
2022-08-16T03:30:20.300Z,19.00
2022-08-16T03:32:53.143Z,19.00
2022-08-16T03:35:33.015Z,18.90
2022-08-16T03:38:32.918Z,19.40
2022-08-16T03:41:00.646Z,18.90
2022-08-16T03:43:51.874Z,18.90
2022-08-16T03:46:48.374Z,18.90
2022-08-16T03:49:13.159Z,18.90
2022-08-16T03:51:43.527Z,18.90
2022-08-16T03:54:20.419Z,18.90
2022-08-16T03:56:56.880Z,18.90
2022-08-16T03:59:32.648Z,18.90
2022-08-16T04:02:10.634Z,18.90
2022-08-16T04:04:50.388Z,18.80
2022-08-16T04:07:18.003Z,18.80
2022-08-16T04:09:47.832Z,18.70
2022-08-16T04:12:54.661Z,18.70
2022-08-16T04:15:04.564Z,18.70
2022-08-16T04:17:39.113Z,18.60
2022-08-16T04:20:11.083Z,18.60
2022-08-16T04:22:58.446Z,18.60
2022-08-16T04:25:29.703Z,18.60
2022-08-16T04:28:29.237Z,18.60
2022-08-16T04:30:48.230Z,18.50
2022-08-16T04:33:18.633Z,18.40
2022-08-16T04:35:58.094Z,18.60
2022-08-16T04:38:27.124Z,18.50
2022-08-16T04:40:57.075Z,18.70
2022-08-16T04:43:25.774Z,18.50
2022-08-16T04:46:00.238Z,18.50
2022-08-16T04:48:33.887Z,18.50
2022-08-16T04:51:12.118Z,18.60
2022-08-16T04:53:56.592Z,18.50
2022-08-16T04:56:26.792Z,18.50
2022-08-16T04:58:57.689Z,18.70
2022-08-16T05:01:57.570Z,18.70
2022-08-16T05:26:02.336Z,19.00
2022-08-16T06:01:56.818Z,19.10
2022-08-16T06:13:06.596Z,19.10
2022-08-16T06:16:58.094Z,19.20
2022-08-16T06:20:55.668Z,19.50
2022-08-16T06:23:26.959Z,19.50
2022-08-16T06:26:07.738Z,19.60
2022-08-16T06:28:42.931Z,20.00
2022-08-16T06:31:31.113Z,19.80
2022-08-16T06:34:55.843Z,19.70
2022-08-16T06:37:00.651Z,19.90
2022-08-16T06:39:30.045Z,19.90
2022-08-16T06:42:06.583Z,19.80
2022-08-16T06:44:53.270Z,19.90
2022-08-16T06:47:54.416Z,19.90
2022-08-16T06:50:30.729Z,19.90
2022-08-16T06:53:08.382Z,20.00
2022-08-16T06:55:40.390Z,20.00
2022-08-16T06:58:21.663Z,20.20
2022-08-16T07:00:59.518Z,20.60
2022-08-16T07:03:55.442Z,20.10
2022-08-16T07:06:26.478Z,20.10
2022-08-16T07:08:59.374Z,20.20
2022-08-16T07:11:47.243Z,20.40
2022-08-16T07:14:27.212Z,20.50
2022-08-16T07:17:31.476Z,20.60
2022-08-16T07:28:43.810Z,20.80
2022-08-16T07:32:04.470Z,21.60
2022-08-16T07:38:39.367Z,20.70
2022-08-16T07:47:16.400Z,20.70
2022-08-16T07:50:56.661Z,22.10
2022-08-16T07:54:02.663Z,19.80
2022-08-16T08:02:58.269Z,22.00
2022-08-16T08:05:44.798Z,21.60
2022-08-16T08:08:50.511Z,22.70
2022-08-16T08:11:18.266Z,23.50
2022-08-16T08:13:54.841Z,22.20
2022-08-16T08:16:37.520Z,21.50
2022-08-16T08:19:53.142Z,22.00
2022-08-16T08:23:00.991Z,18.80
2022-08-16T08:26:21.218Z,22.30
2022-08-16T08:30:48.883Z,22.50
2022-08-16T08:32:58.248Z,21.00
2022-08-16T08:35:34.982Z,21.70
2022-08-16T08:38:43.593Z,22.60
2022-08-16T08:41:50.341Z,22.60
2022-08-16T09:15:05.576Z,23.50
2022-08-16T09:17:55.931Z,22.40
2022-08-16T09:26:43.074Z,21.60
2022-08-16T09:29:45.465Z,21.50
2022-08-16T09:32:36.562Z,21.80
2022-08-16T09:36:12.340Z,21.20
2022-08-16T09:53:30.058Z,21.80
2022-08-16T09:56:52.260Z,20.90
2022-08-16T10:09:42.315Z,19.10
2022-08-16T10:12:10.982Z,22.10
2022-08-16T10:19:01.567Z,20.90
2022-08-16T10:21:57.248Z,22.40
2022-08-16T10:24:55.730Z,20.50
2022-08-16T10:27:46.884Z,20.20
2022-08-16T10:30:25.761Z,21.90
2022-08-16T10:32:58.796Z,21.30
2022-08-16T10:36:12.140Z,20.40
2022-08-16T10:39:18.196Z,19.80
2022-08-16T10:41:48.212Z,20.60
2022-08-16T10:44:22.513Z,20.00
2022-08-16T10:48:00.695Z,19.50
2022-08-16T10:50:58.163Z,20.90
2022-08-16T10:54:07.605Z,19.60
2022-08-16T10:56:56.177Z,19.50
2022-08-16T10:59:39.241Z,19.10
2022-08-16T11:02:58.362Z,19.10
2022-08-16T11:05:06.347Z,19.10
2022-08-16T11:07:42.237Z,19.10
2022-08-16T11:13:58.366Z,19.00
2022-08-16T11:15:57.615Z,18.90
2022-08-16T11:18:54.938Z,18.90
2022-08-16T11:21:29.462Z,19.10
2022-08-16T11:23:58.893Z,18.80
2022-08-16T11:26:27.239Z,18.70
2022-08-16T11:29:13.634Z,18.70
2022-08-16T11:31:45.427Z,18.70
2022-08-16T11:34:16.217Z,18.60
2022-08-16T11:36:53.645Z,18.90
2022-08-16T11:39:29.688Z,18.80
2022-08-16T11:42:00.791Z,19.00
2022-08-16T11:44:52.067Z,19.30
2022-08-16T11:47:20.139Z,19.60
2022-08-16T11:49:47.757Z,19.90
2022-08-16T11:52:17.729Z,20.50
2022-08-16T11:54:53.948Z,20.50
2022-08-16T11:57:24.760Z,20.30
2022-08-16T11:59:53.703Z,20.30
2022-08-16T12:02:32.025Z,20.50
2022-08-16T12:05:00.984Z,20.70
2022-08-16T12:07:28.998Z,21.20
2022-08-16T12:09:59.298Z,21.60
2022-08-16T12:12:28.927Z,21.80
2022-08-16T12:14:59.938Z,21.90
2022-08-16T12:17:32.446Z,21.90
2022-08-16T12:20:27.647Z,21.90
2022-08-16T12:22:57.988Z,22.00
2022-08-16T12:25:28.739Z,22.10
2022-08-16T12:27:58.241Z,22.30
2022-08-16T12:30:38.658Z,22.50
2022-08-16T12:33:09.101Z,22.70
2022-08-16T12:35:38.901Z,22.90
2022-08-16T12:38:37.995Z,23.20
2022-08-16T12:40:58.234Z,23.40
2022-08-16T12:43:25.999Z,23.50
2022-08-16T12:45:59.415Z,23.70
2022-08-16T12:48:51.085Z,23.80
2022-08-16T12:51:24.205Z,23.90
2022-08-16T12:53:54.248Z,24.00
2022-08-16T12:56:26.039Z,24.00
2022-08-16T12:58:56.265Z,24.00
2022-08-16T13:01:28.701Z,23.90
2022-08-16T13:04:20.710Z,23.90
2022-08-16T13:06:48.617Z,23.90
2022-08-16T13:09:26.711Z,23.90
2022-08-16T13:12:04.386Z,23.90
2022-08-16T13:14:39.383Z,23.70
2022-08-16T13:17:17.011Z,23.60
2022-08-16T13:20:08.137Z,23.40
2022-08-16T13:22:41.449Z,23.20
2022-08-16T13:25:13.107Z,23.10
2022-08-16T13:28:02.308Z,23.00
2022-08-16T13:30:42.385Z,23.00
2022-08-16T13:33:15.753Z,23.00
2022-08-16T13:35:55.367Z,23.10
2022-08-16T13:38:31.393Z,23.30
2022-08-16T13:41:04.551Z,23.50
2022-08-16T13:43:38.061Z,23.70
2022-08-16T13:46:06.705Z,23.90
2022-08-16T13:48:42.533Z,24.10
2022-08-16T13:51:18.113Z,24.20
2022-08-16T13:53:59.239Z,24.20
2022-08-16T13:56:37.842Z,24.20
2022-08-16T13:59:20.421Z,24.40
2022-08-16T14:01:54.718Z,24.80
2022-08-16T14:04:27.073Z,25.30
2022-08-16T14:06:59.370Z,25.80
2022-08-16T14:09:30.352Z,26.10
2022-08-16T14:12:00.914Z,26.30
2022-08-16T14:14:30.210Z,26.20
2022-08-16T14:17:01.067Z,26.00
2022-08-16T14:19:29.944Z,25.90
2022-08-16T14:22:14.243Z,25.60
2022-08-16T14:24:47.807Z,25.40
2022-08-16T14:27:18.356Z,25.30
2022-08-16T14:29:49.826Z,25.20
2022-08-16T14:32:32.470Z,25.00
2022-08-16T14:35:07.402Z,25.00
2022-08-16T14:37:36.035Z,24.90
2022-08-16T14:40:06.108Z,24.90
2022-08-16T14:42:33.903Z,24.90
2022-08-16T14:45:10.242Z,24.70
2022-08-16T14:47:38.495Z,24.60
2022-08-16T14:50:08.774Z,24.40
2022-08-16T14:52:56.376Z,24.30
2022-08-16T15:03:22.409Z,24.00
2022-08-16T15:05:50.255Z,23.90
2022-08-16T15:08:21.807Z,23.90
2022-08-16T15:11:04.619Z,23.80
2022-08-16T15:13:32.868Z,23.70
2022-08-16T15:16:02.948Z,23.60
2022-08-16T15:18:33.394Z,23.50
2022-08-16T15:21:02.365Z,23.40
2022-08-16T15:23:33.660Z,23.30
2022-08-16T15:26:02.867Z,23.20
2022-08-16T15:28:33.071Z,23.10
2022-08-16T15:31:03.845Z,23.00
2022-08-16T15:33:34.566Z,22.90
2022-08-16T15:36:03.664Z,23.20
2022-08-16T15:38:56.981Z,22.80
2022-08-16T15:41:34.184Z,22.70
2022-08-16T15:44:10.353Z,22.60
2022-08-16T15:46:55.578Z,22.50
2022-08-16T15:49:37.231Z,22.40
2022-08-16T15:52:29.239Z,22.30
2022-08-16T15:55:01.029Z,22.20
2022-08-16T15:57:41.745Z,22.20
2022-08-16T16:00:15.141Z,22.10
2022-08-16T16:02:45.160Z,22.10
2022-08-16T16:05:14.091Z,22.10
2022-08-16T16:07:55.845Z,22.00
2022-08-16T16:10:29.825Z,24.60
2022-08-16T16:13:08.830Z,22.00
2022-08-16T16:15:40.525Z,22.00
2022-08-16T16:18:10.289Z,22.60
2022-08-16T16:20:56.469Z,22.00
2022-08-16T16:23:29.730Z,22.30
2022-08-16T16:25:57.928Z,22.30
2022-08-16T16:29:05.423Z,22.10
2022-08-16T16:31:22.768Z,22.30
2022-08-16T16:33:55.745Z,22.10
2022-08-16T16:36:36.193Z,22.10
2022-08-16T16:39:15.785Z,22.10
2022-08-16T16:41:46.761Z,22.70
2022-08-16T16:44:32.087Z,24.00
2022-08-16T16:47:01.597Z,22.90
2022-08-16T16:49:29.255Z,22.80
2022-08-16T16:52:06.436Z,22.90
2022-08-16T16:54:35.663Z,22.90
2022-08-16T16:57:04.275Z,22.80
2022-08-16T16:59:31.798Z,22.80
2022-08-16T17:02:38.963Z,22.80
2022-08-16T17:04:48.641Z,22.80
2022-08-16T17:07:17.245Z,22.90
2022-08-16T17:09:46.852Z,23.00
2022-08-16T17:12:25.120Z,23.10
2022-08-16T17:15:02.467Z,23.20
2022-08-16T17:17:30.019Z,23.30
2022-08-16T17:20:05.691Z,23.30
2022-08-16T17:22:41.517Z,23.20
2022-08-16T17:25:12.409Z,23.00
2022-08-16T17:27:40.893Z,22.80
2022-08-16T17:30:16.402Z,22.60
2022-08-16T17:32:54.608Z,22.50
2022-08-16T17:35:35.552Z,22.30
2022-08-16T17:38:05.910Z,22.20
2022-08-16T17:40:46.906Z,22.10
2022-08-16T17:43:23.568Z,22.00
2022-08-16T17:45:51.684Z,22.00
2022-08-16T17:48:19.806Z,22.10
2022-08-16T17:50:48.691Z,22.20
2022-08-16T17:53:22.941Z,22.30
2022-08-16T17:55:51.570Z,22.40
2022-08-16T17:58:22.930Z,22.50
2022-08-16T18:00:55.220Z,22.50
2022-08-16T18:04:07.639Z,22.40
2022-08-16T18:06:29.677Z,22.40
2022-08-16T18:09:03.681Z,22.30
2022-08-16T18:11:33.983Z,22.20
2022-08-16T18:14:01.880Z,22.10
2022-08-16T18:16:29.525Z,21.80
2022-08-16T18:18:57.604Z,21.70
2022-08-16T18:21:51.154Z,21.50
2022-08-16T18:24:19.093Z,20.90
2022-08-16T18:26:52.489Z,21.40
2022-08-16T18:29:21.310Z,22.40
2022-08-16T18:32:10.726Z,20.80
2022-08-16T18:34:44.969Z,20.90
2022-08-16T18:37:36.609Z,20.90
2022-08-16T18:40:11.519Z,20.50
2022-08-16T18:42:41.261Z,20.80
2022-08-16T18:45:18.465Z,20.40
2022-08-16T18:47:53.397Z,21.80
2022-08-16T18:51:03.890Z,20.20
2022-08-16T18:53:28.113Z,18.80
2022-08-16T18:56:00.410Z,21.90
2022-08-16T18:58:30.236Z,19.50
2022-08-16T19:01:01.255Z,19.90
2022-08-16T19:03:42.916Z,18.50
2022-08-16T19:06:21.259Z,19.30
2022-08-16T19:08:54.317Z,19.50
2022-08-16T19:14:15.576Z,19.00
2022-08-16T19:16:46.038Z,18.80
2022-08-16T19:19:16.795Z,18.90
2022-08-16T19:21:44.834Z,18.90
2022-08-16T19:24:18.654Z,18.80
2022-08-16T19:26:46.252Z,21.50
2022-08-16T19:29:14.664Z,18.70
2022-08-16T19:31:42.534Z,18.70
2022-08-16T19:34:11.118Z,18.60
2022-08-16T19:36:40.311Z,18.50
2022-08-16T19:39:11.906Z,18.50
2022-08-16T19:41:42.234Z,18.40
2022-08-16T19:44:11.399Z,18.40
2022-08-16T19:46:43.748Z,18.30
2022-08-16T19:49:16.130Z,18.30
2022-08-16T19:51:48.052Z,18.30
2022-08-16T19:54:16.267Z,18.30
2022-08-16T19:56:44.716Z,18.30
2022-08-16T19:59:19.464Z,18.30
2022-08-16T20:01:52.181Z,18.40
2022-08-16T20:04:24.497Z,18.40
2022-08-16T20:06:53.135Z,18.50
2022-08-16T20:09:22.535Z,18.50
2022-08-16T20:11:52.426Z,18.50
2022-08-16T20:14:25.392Z,18.60
2022-08-16T20:16:56.050Z,18.60
2022-08-16T20:19:25.103Z,18.60
2022-08-16T20:21:52.910Z,18.70
2022-08-16T20:24:34.143Z,18.70
2022-08-16T20:27:07.564Z,18.70
2022-08-16T20:29:40.491Z,18.80
2022-08-16T20:32:11.880Z,18.80
2022-08-16T20:34:41.561Z,18.80
2022-08-16T20:37:12.839Z,18.80
2022-08-16T20:39:44.043Z,18.80
2022-08-16T20:42:16.599Z,18.90
2022-08-16T20:44:44.935Z,18.90
2022-08-16T20:47:13.150Z,18.90
2022-08-16T20:49:41.348Z,18.90
2022-08-16T20:52:11.328Z,18.90
2022-08-16T20:54:39.735Z,18.90
2022-08-16T20:57:07.660Z,18.90
2022-08-16T20:59:35.489Z,18.80
2022-08-16T21:02:03.748Z,18.80
2022-08-16T21:04:31.403Z,18.80
2022-08-16T21:06:59.360Z,18.80
2022-08-16T21:09:31.308Z,18.70
2022-08-16T21:12:04.794Z,18.70
2022-08-16T21:14:34.587Z,18.70
2022-08-16T21:17:04.915Z,18.60
2022-08-16T21:19:35.185Z,18.60
2022-08-16T21:22:20.381Z,17.30
2022-08-16T21:24:49.140Z,18.60
2022-08-16T21:27:24.350Z,18.60
2022-08-16T21:30:00.612Z,18.50
2022-08-16T21:32:35.151Z,18.50
2022-08-16T21:35:13.459Z,18.50
2022-08-16T21:37:42.075Z,18.50
2022-08-16T21:40:11.175Z,18.50
2022-08-16T21:42:41.340Z,18.50
2022-08-16T21:45:13.167Z,18.40
2022-08-16T21:47:40.828Z,18.40
2022-08-16T21:50:09.760Z,18.30
2022-08-16T21:52:44.538Z,18.30
2022-08-16T21:55:12.116Z,18.30
2022-08-16T21:57:39.769Z,18.50
2022-08-16T22:00:14.744Z,18.10
2022-08-16T22:02:47.888Z,18.10
2022-08-16T22:05:18.077Z,18.00
2022-08-16T22:07:45.657Z,18.00
2022-08-16T22:11:04.923Z,18.00
2022-08-16T22:13:00.873Z,18.00
2022-08-16T22:15:28.580Z,18.00
2022-08-16T22:17:58.788Z,18.00
2022-08-16T22:20:28.566Z,18.00
2022-08-16T22:23:14.117Z,18.10
2022-08-16T22:25:44.061Z,18.00
2022-08-16T22:28:12.968Z,18.00
2022-08-16T22:30:43.934Z,18.00
2022-08-16T22:33:18.277Z,18.00
2022-08-16T22:36:06.470Z,18.10
2022-08-16T22:38:55.040Z,18.00
2022-08-16T22:41:22.071Z,18.00
2022-08-16T22:43:49.599Z,18.00
2022-08-16T22:46:18.707Z,18.00
2022-08-16T22:48:46.414Z,18.40
2022-08-16T22:51:14.029Z,18.00
2022-08-16T22:53:41.872Z,18.00
2022-08-16T22:56:09.524Z,18.20
2022-08-16T22:58:37.457Z,18.20
2022-08-16T23:01:06.927Z,17.90
2022-08-16T23:03:36.202Z,17.60
2022-08-16T23:06:05.292Z,17.70
2022-08-16T23:08:39.541Z,17.60
2022-08-16T23:11:14.247Z,17.60
2022-08-16T23:13:52.672Z,17.50
2022-08-16T23:16:32.251Z,17.40
2022-08-16T23:19:02.348Z,17.30
2022-08-16T23:21:30.033Z,17.30
2022-08-16T23:23:58.274Z,17.20
2022-08-16T23:26:46.265Z,17.20
2022-08-16T23:29:15.604Z,17.10
2022-08-16T23:32:10.890Z,17.10
2022-08-16T23:34:38.746Z,17.00
2022-08-16T23:37:06.658Z,17.00
2022-08-16T23:39:37.140Z,17.00
2022-08-16T23:42:14.049Z,16.90
2022-08-16T23:44:59.093Z,16.90
2022-08-16T23:47:26.963Z,16.90
2022-08-16T23:50:00.891Z,17.00
2022-08-16T23:52:53.271Z,17.10
2022-08-16T23:55:19.614Z,17.10
2022-08-16T23:57:47.473Z,17.20
